sensor_id;sensor_type;location;lat;lon;timestamp;P1;durP1;ratioP1;P2;durP2;ratioP2
37303;SDS011;23188;51.188;16.374;2023-06-26T00:01:49;12.90;;;6.90;;
37303;SDS011;23188;51.188;16.374;2023-06-26T00:05:51;9.90;;;7.00;;
37303;SDS011;23188;51.188;16.374;2023-06-26T00:09:53;12.00;;;5.90;;
37303;SDS011;23188;51.188;16.374;2023-06-26T00:13:55;9.10;;;6.60;;
37303;SDS011;23188;51.188;16.374;2023-06-26T00:17:57;9.10;;;7.10;;
37303;SDS011;23188;51.188;16.374;2023-06-26T00:22:00;7.90;;;5.70;;
37303;SDS011;23188;51.188;16.374;2023-06-26T00:26:03;9.50;;;6.90;;
37303;SDS011;23188;51.188;16.374;2023-06-26T00:30:07;12.20;;;7.10;;
37303;SDS011;23188;51.188;16.374;2023-06-26T00:34:09;15.20;;;8.50;;
37303;SDS011;23188;51.188;16.374;2023-06-26T00:38:11;10.10;;;6.00;;
37303;SDS011;23188;51.188;16.374;2023-06-26T00:46:19;8.60;;;7.60;;
37303;SDS011;23188;51.188;16.374;2023-06-26T00:50:21;10.70;;;6.90;;
37303;SDS011;23188;51.188;16.374;2023-06-26T00:54:23;10.90;;;7.20;;
37303;SDS011;23188;51.188;16.374;2023-06-26T00:58:25;15.60;;;7.20;;
37303;SDS011;23188;51.188;16.374;2023-06-26T01:02:27;15.70;;;6.40;;
37303;SDS011;23188;51.188;16.374;2023-06-26T01:06:36;14.20;;;6.40;;
37303;SDS011;23188;51.188;16.374;2023-06-26T01:10:38;16.80;;;6.80;;
37303;SDS011;23188;51.188;16.374;2023-06-26T01:14:44;13.50;;;5.70;;
37303;SDS011;23188;51.188;16.374;2023-06-26T01:18:46;10.00;;;7.40;;
37303;SDS011;23188;51.188;16.374;2023-06-26T01:27:38;35.20;;;6.50;;
37303;SDS011;23188;51.188;16.374;2023-06-26T01:31:43;14.70;;;6.80;;
37303;SDS011;23188;51.188;16.374;2023-06-26T01:35:49;12.10;;;5.90;;
37303;SDS011;23188;51.188;16.374;2023-06-26T01:39:51;16.20;;;8.60;;
37303;SDS011;23188;51.188;16.374;2023-06-26T01:44:10;10.60;;;5.40;;
37303;SDS011;23188;51.188;16.374;2023-06-26T01:53:27;19.10;;;7.70;;
37303;SDS011;23188;51.188;16.374;2023-06-26T01:57:38;12.40;;;5.60;;
37303;SDS011;23188;51.188;16.374;2023-06-26T02:01:41;14.80;;;7.70;;
37303;SDS011;23188;51.188;16.374;2023-06-26T02:05:43;16.90;;;6.80;;
37303;SDS011;23188;51.188;16.374;2023-06-26T02:09:45;10.60;;;4.90;;
37303;SDS011;23188;51.188;16.374;2023-06-26T02:13:53;17.10;;;7.20;;
37303;SDS011;23188;51.188;16.374;2023-06-26T02:17:54;11.90;;;7.40;;
37303;SDS011;23188;51.188;16.374;2023-06-26T02:21:57;13.90;;;6.40;;
37303;SDS011;23188;51.188;16.374;2023-06-26T02:25:59;10.90;;;5.50;;
37303;SDS011;23188;51.188;16.374;2023-06-26T02:30:01;25.30;;;8.40;;
37303;SDS011;23188;51.188;16.374;2023-06-26T02:34:05;14.90;;;6.60;;
37303;SDS011;23188;51.188;16.374;2023-06-26T02:38:09;13.60;;;6.30;;
37303;SDS011;23188;51.188;16.374;2023-06-26T02:42:20;13.10;;;7.50;;
37303;SDS011;23188;51.188;16.374;2023-06-26T02:46:22;12.30;;;5.60;;
37303;SDS011;23188;51.188;16.374;2023-06-26T02:50:54;37.80;;;7.60;;
37303;SDS011;23188;51.188;16.374;2023-06-26T02:54:55;24.80;;;7.70;;
37303;SDS011;23188;51.188;16.374;2023-06-26T02:58:57;14.60;;;6.00;;
37303;SDS011;23188;51.188;16.374;2023-06-26T03:02:59;15.80;;;6.30;;
37303;SDS011;23188;51.188;16.374;2023-06-26T03:07:03;13.80;;;5.90;;
37303;SDS011;23188;51.188;16.374;2023-06-26T03:11:09;16.90;;;6.10;;
37303;SDS011;23188;51.188;16.374;2023-06-26T03:15:11;29.70;;;7.90;;
37303;SDS011;23188;51.188;16.374;2023-06-26T03:19:13;24.30;;;8.60;;
37303;SDS011;23188;51.188;16.374;2023-06-26T03:23:14;10.60;;;7.90;;
37303;SDS011;23188;51.188;16.374;2023-06-26T03:27:17;9.10;;;5.90;;
37303;SDS011;23188;51.188;16.374;2023-06-26T03:31:20;18.00;;;9.10;;
37303;SDS011;23188;51.188;16.374;2023-06-26T03:35:22;18.30;;;7.50;;
37303;SDS011;23188;51.188;16.374;2023-06-26T03:39:26;13.30;;;8.00;;
37303;SDS011;23188;51.188;16.374;2023-06-26T03:43:28;16.70;;;8.70;;
37303;SDS011;23188;51.188;16.374;2023-06-26T03:47:30;11.40;;;6.60;;
37303;SDS011;23188;51.188;16.374;2023-06-26T03:51:32;19.70;;;8.40;;
37303;SDS011;23188;51.188;16.374;2023-06-26T03:55:34;19.20;;;9.30;;
37303;SDS011;23188;51.188;16.374;2023-06-26T03:59:36;12.40;;;6.50;;
37303;SDS011;23188;51.188;16.374;2023-06-26T04:03:38;11.10;;;7.50;;
37303;SDS011;23188;51.188;16.374;2023-06-26T04:07:42;20.10;;;8.20;;
37303;SDS011;23188;51.188;16.374;2023-06-26T04:11:44;15.10;;;6.00;;
37303;SDS011;23188;51.188;16.374;2023-06-26T04:15:45;10.20;;;5.50;;
37303;SDS011;23188;51.188;16.374;2023-06-26T04:19:47;14.80;;;7.90;;
37303;SDS011;23188;51.188;16.374;2023-06-26T04:23:49;14.50;;;7.20;;
37303;SDS011;23188;51.188;16.374;2023-06-26T04:27:51;15.40;;;6.10;;
37303;SDS011;23188;51.188;16.374;2023-06-26T04:31:53;24.60;;;7.50;;
37303;SDS011;23188;51.188;16.374;2023-06-26T04:35:59;17.60;;;7.90;;
37303;SDS011;23188;51.188;16.374;2023-06-26T04:40:05;14.70;;;7.20;;
37303;SDS011;23188;51.188;16.374;2023-06-26T04:44:14;7.80;;;5.20;;
37303;SDS011;23188;51.188;16.374;2023-06-26T04:48:16;13.40;;;5.40;;
37303;SDS011;23188;51.188;16.374;2023-06-26T04:52:18;15.10;;;6.50;;
37303;SDS011;23188;51.188;16.374;2023-06-26T04:56:22;14.00;;;4.60;;
37303;SDS011;23188;51.188;16.374;2023-06-26T05:00:24;9.60;;;6.20;;
37303;SDS011;23188;51.188;16.374;2023-06-26T05:08:49;6.80;;;5.10;;
37303;SDS011;23188;51.188;16.374;2023-06-26T05:12:51;13.10;;;4.50;;
37303;SDS011;23188;51.188;16.374;2023-06-26T05:16:53;7.80;;;4.20;;
37303;SDS011;23188;51.188;16.374;2023-06-26T05:20:56;15.70;;;4.60;;
37303;SDS011;23188;51.188;16.374;2023-06-26T05:24:58;11.80;;;5.00;;
37303;SDS011;23188;51.188;16.374;2023-06-26T05:29:02;14.20;;;5.20;;
37303;SDS011;23188;51.188;16.374;2023-06-26T05:33:05;8.00;;;3.70;;
37303;SDS011;23188;51.188;16.374;2023-06-26T05:37:07;8.50;;;3.70;;
37303;SDS011;23188;51.188;16.374;2023-06-26T05:41:19;5.90;;;4.30;;
37303;SDS011;23188;51.188;16.374;2023-06-26T05:49:26;7.80;;;4.70;;
37303;SDS011;23188;51.188;16.374;2023-06-26T05:53:28;7.80;;;4.40;;
37303;SDS011;23188;51.188;16.374;2023-06-26T05:57:32;7.20;;;4.20;;
37303;SDS011;23188;51.188;16.374;2023-06-26T06:01:37;12.20;;;4.30;;
37303;SDS011;23188;51.188;16.374;2023-06-26T06:05:39;6.20;;;4.40;;
37303;SDS011;23188;51.188;16.374;2023-06-26T06:09:48;6.50;;;4.10;;
37303;SDS011;23188;51.188;16.374;2023-06-26T06:13:50;12.20;;;5.50;;
37303;SDS011;23188;51.188;16.374;2023-06-26T06:17:52;5.60;;;3.70;;
37303;SDS011;23188;51.188;16.374;2023-06-26T06:21:56;5.50;;;3.90;;
37303;SDS011;23188;51.188;16.374;2023-06-26T06:25:58;6.10;;;4.90;;
37303;SDS011;23188;51.188;16.374;2023-06-26T06:30:00;3.60;;;3.20;;
37303;SDS011;23188;51.188;16.374;2023-06-26T06:38:27;10.60;;;4.00;;
37303;SDS011;23188;51.188;16.374;2023-06-26T06:42:29;5.10;;;4.00;;
37303;SDS011;23188;51.188;16.374;2023-06-26T06:51:03;7.40;;;4.50;;
37303;SDS011;23188;51.188;16.374;2023-06-26T06:55:06;4.30;;;3.50;;
37303;SDS011;23188;51.188;16.374;2023-06-26T06:59:13;7.40;;;3.40;;
37303;SDS011;23188;51.188;16.374;2023-06-26T07:07:46;6.60;;;3.60;;
37303;SDS011;23188;51.188;16.374;2023-06-26T07:11:48;4.40;;;2.90;;
37303;SDS011;23188;51.188;16.374;2023-06-26T07:15:50;5.60;;;3.50;;
37303;SDS011;23188;51.188;16.374;2023-06-26T07:19:53;4.00;;;3.00;;
37303;SDS011;23188;51.188;16.374;2023-06-26T07:23:54;4.80;;;3.60;;
37303;SDS011;23188;51.188;16.374;2023-06-26T07:27:59;3.40;;;3.10;;
37303;SDS011;23188;51.188;16.374;2023-06-26T07:32:01;9.10;;;3.60;;
37303;SDS011;23188;51.188;16.374;2023-06-26T07:40:43;3.90;;;2.70;;
37303;SDS011;23188;51.188;16.374;2023-06-26T07:44:46;3.30;;;3.00;;
37303;SDS011;23188;51.188;16.374;2023-06-26T07:48:48;3.40;;;3.10;;
37303;SDS011;23188;51.188;16.374;2023-06-26T07:52:50;6.00;;;4.20;;
37303;SDS011;23188;51.188;16.374;2023-06-26T07:56:58;7.60;;;4.50;;
37303;SDS011;23188;51.188;16.374;2023-06-26T08:01:02;5.90;;;3.00;;
37303;SDS011;23188;51.188;16.374;2023-06-26T08:05:04;4.90;;;3.20;;
37303;SDS011;23188;51.188;16.374;2023-06-26T08:09:07;3.40;;;2.90;;
37303;SDS011;23188;51.188;16.374;2023-06-26T08:13:10;2.60;;;2.30;;
37303;SDS011;23188;51.188;16.374;2023-06-26T08:17:12;3.10;;;2.90;;
37303;SDS011;23188;51.188;16.374;2023-06-26T08:21:14;4.60;;;3.40;;
37303;SDS011;23188;51.188;16.374;2023-06-26T08:25:16;4.30;;;3.70;;
37303;SDS011;23188;51.188;16.374;2023-06-26T08:29:19;2.70;;;2.40;;
37303;SDS011;23188;51.188;16.374;2023-06-26T08:33:21;2.60;;;2.40;;
37303;SDS011;23188;51.188;16.374;2023-06-26T08:37:26;3.50;;;3.10;;
37303;SDS011;23188;51.188;16.374;2023-06-26T08:41:34;2.80;;;2.60;;
37303;SDS011;23188;51.188;16.374;2023-06-26T08:45:48;3.60;;;2.70;;
37303;SDS011;23188;51.188;16.374;2023-06-26T08:49:56;4.90;;;2.00;;
37303;SDS011;23188;51.188;16.374;2023-06-26T08:54:09;3.90;;;2.80;;
37303;SDS011;23188;51.188;16.374;2023-06-26T08:58:40;3.80;;;3.00;;
37303;SDS011;23188;51.188;16.374;2023-06-26T09:02:54;4.30;;;2.80;;
37303;SDS011;23188;51.188;16.374;2023-06-26T09:07:01;2.80;;;2.30;;
37303;SDS011;23188;51.188;16.374;2023-06-26T09:11:04;4.10;;;2.70;;
37303;SDS011;23188;51.188;16.374;2023-06-26T09:15:06;3.30;;;2.70;;
37303;SDS011;23188;51.188;16.374;2023-06-26T09:19:12;5.30;;;3.40;;
37303;SDS011;23188;51.188;16.374;2023-06-26T09:23:14;8.30;;;3.20;;
37303;SDS011;23188;51.188;16.374;2023-06-26T09:27:18;3.40;;;2.60;;
37303;SDS011;23188;51.188;16.374;2023-06-26T09:31:20;3.90;;;3.30;;
37303;SDS011;23188;51.188;16.374;2023-06-26T09:35:45;3.50;;;3.00;;
37303;SDS011;23188;51.188;16.374;2023-06-26T09:44:10;3.70;;;2.90;;
37303;SDS011;23188;51.188;16.374;2023-06-26T09:48:16;3.00;;;2.70;;
37303;SDS011;23188;51.188;16.374;2023-06-26T09:52:20;3.00;;;2.70;;
37303;SDS011;23188;51.188;16.374;2023-06-26T09:56:31;2.10;;;1.90;;
37303;SDS011;23188;51.188;16.374;2023-06-26T10:00:36;3.50;;;3.20;;
37303;SDS011;23188;51.188;16.374;2023-06-26T10:04:53;3.50;;;2.20;;
37303;SDS011;23188;51.188;16.374;2023-06-26T10:09:24;2.10;;;1.90;;
37303;SDS011;23188;51.188;16.374;2023-06-26T10:13:46;2.40;;;2.20;;
37303;SDS011;23188;51.188;16.374;2023-06-26T10:18:24;2.90;;;2.50;;
37303;SDS011;23188;51.188;16.374;2023-06-26T10:22:49;4.20;;;3.40;;
37303;SDS011;23188;51.188;16.374;2023-06-26T10:27:19;3.40;;;2.60;;
37303;SDS011;23188;51.188;16.374;2023-06-26T10:32:37;3.30;;;2.60;;
37303;SDS011;23188;51.188;16.374;2023-06-26T10:36:45;3.30;;;2.60;;
37303;SDS011;23188;51.188;16.374;2023-06-26T10:41:23;4.20;;;2.90;;
37303;SDS011;23188;51.188;16.374;2023-06-26T10:46:20;3.50;;;2.70;;
37303;SDS011;23188;51.188;16.374;2023-06-26T10:55:27;4.10;;;3.00;;
37303;SDS011;23188;51.188;16.374;2023-06-26T11:28:50;4.40;;;3.20;;
37303;SDS011;23188;51.188;16.374;2023-06-26T11:33:02;5.00;;;4.40;;
37303;SDS011;23188;51.188;16.374;2023-06-26T11:37:19;3.80;;;3.40;;
37303;SDS011;23188;51.188;16.374;2023-06-26T11:41:27;4.40;;;3.30;;
37303;SDS011;23188;51.188;16.374;2023-06-26T11:45:31;4.90;;;3.30;;
37303;SDS011;23188;51.188;16.374;2023-06-26T11:49:36;4.00;;;3.10;;
37303;SDS011;23188;51.188;16.374;2023-06-26T11:53:39;17.50;;;6.40;;
37303;SDS011;23188;51.188;16.374;2023-06-26T11:57:49;4.80;;;3.50;;
37303;SDS011;23188;51.188;16.374;2023-06-26T12:01:52;4.70;;;3.40;;
37303;SDS011;23188;51.188;16.374;2023-06-26T12:05:55;3.50;;;2.90;;
37303;SDS011;23188;51.188;16.374;2023-06-26T12:09:57;4.40;;;3.10;;
37303;SDS011;23188;51.188;16.374;2023-06-26T12:19:57;5.70;;;3.70;;
37303;SDS011;23188;51.188;16.374;2023-06-26T12:24:01;4.60;;;4.20;;
37303;SDS011;23188;51.188;16.374;2023-06-26T12:28:16;2.60;;;2.20;;
37303;SDS011;23188;51.188;16.374;2023-06-26T12:32:36;3.50;;;2.90;;
37303;SDS011;23188;51.188;16.374;2023-06-26T12:36:42;7.60;;;3.70;;
37303;SDS011;23188;51.188;16.374;2023-06-26T12:40:47;6.90;;;4.30;;
37303;SDS011;23188;51.188;16.374;2023-06-26T12:44:50;4.30;;;3.00;;
37303;SDS011;23188;51.188;16.374;2023-06-26T12:48:56;3.70;;;2.50;;
37303;SDS011;23188;51.188;16.374;2023-06-26T12:53:20;3.90;;;2.80;;
37303;SDS011;23188;51.188;16.374;2023-06-26T12:57:22;3.70;;;3.10;;
37303;SDS011;23188;51.188;16.374;2023-06-26T13:06:02;6.00;;;3.10;;
37303;SDS011;23188;51.188;16.374;2023-06-26T13:10:04;4.00;;;3.60;;
37303;SDS011;23188;51.188;16.374;2023-06-26T13:15:02;4.30;;;3.20;;
37303;SDS011;23188;51.188;16.374;2023-06-26T13:19:10;3.00;;;2.30;;
37303;SDS011;23188;51.188;16.374;2023-06-26T13:23:36;3.40;;;3.00;;
37303;SDS011;23188;51.188;16.374;2023-06-26T13:28:19;4.30;;;3.20;;
37303;SDS011;23188;51.188;16.374;2023-06-26T13:32:43;2.70;;;2.50;;
37303;SDS011;23188;51.188;16.374;2023-06-26T14:26:46;4.00;;;2.20;;
37303;SDS011;23188;51.188;16.374;2023-06-26T14:30:48;3.60;;;2.70;;
37303;SDS011;23188;51.188;16.374;2023-06-26T14:34:49;10.60;;;4.20;;
37303;SDS011;23188;51.188;16.374;2023-06-26T14:38:51;3.60;;;3.10;;
37303;SDS011;23188;51.188;16.374;2023-06-26T14:42:53;5.00;;;3.30;;
37303;SDS011;23188;51.188;16.374;2023-06-26T14:46:55;2.30;;;2.10;;
37303;SDS011;23188;51.188;16.374;2023-06-26T14:50:58;7.40;;;2.70;;
37303;SDS011;23188;51.188;16.374;2023-06-26T14:55:01;6.20;;;3.70;;
37303;SDS011;23188;51.188;16.374;2023-06-26T15:03:08;4.50;;;2.90;;
37303;SDS011;23188;51.188;16.374;2023-06-26T15:07:11;4.90;;;3.50;;
37303;SDS011;23188;51.188;16.374;2023-06-26T15:11:13;4.80;;;3.20;;
37303;SDS011;23188;51.188;16.374;2023-06-26T15:15:14;5.40;;;3.90;;
37303;SDS011;23188;51.188;16.374;2023-06-26T15:19:16;4.40;;;4.00;;
37303;SDS011;23188;51.188;16.374;2023-06-26T15:23:18;14.50;;;3.70;;
37303;SDS011;23188;51.188;16.374;2023-06-26T15:27:19;5.10;;;3.00;;
37303;SDS011;23188;51.188;16.374;2023-06-26T15:31:23;3.40;;;2.70;;
37303;SDS011;23188;51.188;16.374;2023-06-26T15:35:25;3.20;;;2.60;;
37303;SDS011;23188;51.188;16.374;2023-06-26T15:39:27;3.70;;;3.20;;
37303;SDS011;23188;51.188;16.374;2023-06-26T15:43:30;3.40;;;2.30;;
37303;SDS011;23188;51.188;16.374;2023-06-26T15:47:33;3.00;;;2.70;;
37303;SDS011;23188;51.188;16.374;2023-06-26T15:51:36;3.40;;;3.10;;
37303;SDS011;23188;51.188;16.374;2023-06-26T15:55:38;3.90;;;3.50;;
37303;SDS011;23188;51.188;16.374;2023-06-26T15:59:44;3.10;;;2.70;;
37303;SDS011;23188;51.188;16.374;2023-06-26T16:03:46;3.90;;;2.70;;
37303;SDS011;23188;51.188;16.374;2023-06-26T16:07:53;3.80;;;3.40;;
37303;SDS011;23188;51.188;16.374;2023-06-26T16:11:59;2.60;;;2.40;;
37303;SDS011;23188;51.188;16.374;2023-06-26T16:16:00;3.30;;;3.00;;
37303;SDS011;23188;51.188;16.374;2023-06-26T16:20:02;3.80;;;2.80;;
37303;SDS011;23188;51.188;16.374;2023-06-26T16:24:04;5.20;;;3.80;;
37303;SDS011;23188;51.188;16.374;2023-06-26T16:28:19;7.30;;;3.80;;
37303;SDS011;23188;51.188;16.374;2023-06-26T16:32:20;3.60;;;3.20;;
37303;SDS011;23188;51.188;16.374;2023-06-26T16:36:23;3.40;;;2.70;;
37303;SDS011;23188;51.188;16.374;2023-06-26T16:40:25;7.20;;;3.30;;
37303;SDS011;23188;51.188;16.374;2023-06-26T16:44:26;8.70;;;4.40;;
37303;SDS011;23188;51.188;16.374;2023-06-26T16:48:28;3.40;;;2.50;;
37303;SDS011;23188;51.188;16.374;2023-06-26T16:52:30;4.40;;;4.00;;
37303;SDS011;23188;51.188;16.374;2023-06-26T17:01:36;4.30;;;3.90;;
37303;SDS011;23188;51.188;16.374;2023-06-26T17:05:40;5.90;;;3.90;;
37303;SDS011;23188;51.188;16.374;2023-06-26T17:09:42;8.50;;;4.90;;
37303;SDS011;23188;51.188;16.374;2023-06-26T17:13:44;24.80;;;9.80;;
37303;SDS011;23188;51.188;16.374;2023-06-26T17:22:40;9.20;;;7.20;;
37303;SDS011;23188;51.188;16.374;2023-06-26T17:31:29;8.40;;;5.40;;
37303;SDS011;23188;51.188;16.374;2023-06-26T17:35:35;6.80;;;5.10;;
37303;SDS011;23188;51.188;16.374;2023-06-26T17:39:39;21.60;;;6.50;;
37303;SDS011;23188;51.188;16.374;2023-06-26T17:47:56;5.40;;;3.90;;
37303;SDS011;23188;51.188;16.374;2023-06-26T17:52:01;7.40;;;4.70;;
37303;SDS011;23188;51.188;16.374;2023-06-26T18:00:06;7.50;;;5.50;;
37303;SDS011;23188;51.188;16.374;2023-06-26T18:04:09;6.80;;;4.70;;
37303;SDS011;23188;51.188;16.374;2023-06-26T18:08:12;7.50;;;4.50;;
37303;SDS011;23188;51.188;16.374;2023-06-26T18:12:13;7.70;;;6.00;;
37303;SDS011;23188;51.188;16.374;2023-06-26T18:16:15;7.70;;;5.00;;
37303;SDS011;23188;51.188;16.374;2023-06-26T18:20:29;7.90;;;4.60;;
37303;SDS011;23188;51.188;16.374;2023-06-26T18:24:31;19.70;;;8.50;;
37303;SDS011;23188;51.188;16.374;2023-06-26T18:32:45;21.20;;;11.90;;
37303;SDS011;23188;51.188;16.374;2023-06-26T18:36:53;16.30;;;8.70;;
37303;SDS011;23188;51.188;16.374;2023-06-26T18:40:54;12.70;;;7.10;;
37303;SDS011;23188;51.188;16.374;2023-06-26T18:44:58;6.90;;;6.00;;
37303;SDS011;23188;51.188;16.374;2023-06-26T18:49:01;5.30;;;4.70;;
37303;SDS011;23188;51.188;16.374;2023-06-26T18:57:07;24.40;;;15.00;;
37303;SDS011;23188;51.188;16.374;2023-06-26T19:01:09;20.30;;;10.90;;
37303;SDS011;23188;51.188;16.374;2023-06-26T19:05:11;14.50;;;4.50;;
37303;SDS011;23188;51.188;16.374;2023-06-26T19:09:13;8.20;;;4.60;;
37303;SDS011;23188;51.188;16.374;2023-06-26T19:13:16;20.30;;;4.90;;
37303;SDS011;23188;51.188;16.374;2023-06-26T19:17:19;8.30;;;4.70;;
37303;SDS011;23188;51.188;16.374;2023-06-26T19:21:21;14.30;;;6.10;;
37303;SDS011;23188;51.188;16.374;2023-06-26T19:25:23;9.20;;;5.60;;
37303;SDS011;23188;51.188;16.374;2023-06-26T19:33:49;10.70;;;5.00;;
37303;SDS011;23188;51.188;16.374;2023-06-26T19:37:50;6.30;;;4.70;;
37303;SDS011;23188;51.188;16.374;2023-06-26T19:42:05;6.60;;;5.00;;
37303;SDS011;23188;51.188;16.374;2023-06-26T19:46:07;11.60;;;5.80;;
37303;SDS011;23188;51.188;16.374;2023-06-26T19:50:09;7.00;;;4.80;;
37303;SDS011;23188;51.188;16.374;2023-06-26T19:54:11;9.30;;;5.30;;
37303;SDS011;23188;51.188;16.374;2023-06-26T19:58:13;17.00;;;5.50;;
37303;SDS011;23188;51.188;16.374;2023-06-26T20:02:15;7.90;;;5.20;;
37303;SDS011;23188;51.188;16.374;2023-06-26T20:06:17;8.30;;;4.70;;
37303;SDS011;23188;51.188;16.374;2023-06-26T20:10:19;8.80;;;6.40;;
37303;SDS011;23188;51.188;16.374;2023-06-26T20:14:20;8.20;;;5.70;;
37303;SDS011;23188;51.188;16.374;2023-06-26T20:18:22;8.90;;;6.30;;
37303;SDS011;23188;51.188;16.374;2023-06-26T20:22:26;8.20;;;5.80;;
37303;SDS011;23188;51.188;16.374;2023-06-26T20:26:27;10.40;;;6.80;;
37303;SDS011;23188;51.188;16.374;2023-06-26T20:30:29;7.20;;;5.90;;
37303;SDS011;23188;51.188;16.374;2023-06-26T20:34:31;12.10;;;8.40;;
37303;SDS011;23188;51.188;16.374;2023-06-26T20:38:33;8.30;;;7.00;;
37303;SDS011;23188;51.188;16.374;2023-06-26T20:42:34;13.20;;;8.50;;
37303;SDS011;23188;51.188;16.374;2023-06-26T20:46:38;10.40;;;7.50;;
37303;SDS011;23188;51.188;16.374;2023-06-26T20:55:01;10.70;;;8.30;;
37303;SDS011;23188;51.188;16.374;2023-06-26T21:03:57;10.30;;;6.90;;
37303;SDS011;23188;51.188;16.374;2023-06-26T21:07:59;13.10;;;8.40;;
37303;SDS011;23188;51.188;16.374;2023-06-26T21:16:30;10.20;;;6.70;;
37303;SDS011;23188;51.188;16.374;2023-06-26T21:24:59;12.10;;;8.30;;
37303;SDS011;23188;51.188;16.374;2023-06-26T21:29:01;8.20;;;7.30;;
37303;SDS011;23188;51.188;16.374;2023-06-26T21:33:09;10.20;;;8.80;;
37303;SDS011;23188;51.188;16.374;2023-06-26T21:37:11;8.50;;;7.40;;
37303;SDS011;23188;51.188;16.374;2023-06-26T21:41:13;11.00;;;7.80;;
37303;SDS011;23188;51.188;16.374;2023-06-26T21:45:15;9.80;;;7.10;;
37303;SDS011;23188;51.188;16.374;2023-06-26T21:49:17;8.40;;;7.40;;
37303;SDS011;23188;51.188;16.374;2023-06-26T21:53:18;9.60;;;7.60;;
37303;SDS011;23188;51.188;16.374;2023-06-26T21:57:30;10.80;;;8.10;;
37303;SDS011;23188;51.188;16.374;2023-06-26T22:01:32;16.50;;;8.10;;
37303;SDS011;23188;51.188;16.374;2023-06-26T22:05:34;9.80;;;8.20;;
37303;SDS011;23188;51.188;16.374;2023-06-26T22:09:36;7.90;;;7.20;;
37303;SDS011;23188;51.188;16.374;2023-06-26T22:13:39;9.00;;;7.20;;
37303;SDS011;23188;51.188;16.374;2023-06-26T22:17:47;9.30;;;6.70;;
37303;SDS011;23188;51.188;16.374;2023-06-26T22:22:06;8.60;;;6.50;;
37303;SDS011;23188;51.188;16.374;2023-06-26T22:31:05;8.90;;;6.90;;
37303;SDS011;23188;51.188;16.374;2023-06-26T22:35:25;8.40;;;7.10;;
37303;SDS011;23188;51.188;16.374;2023-06-26T22:39:26;8.80;;;7.00;;
37303;SDS011;23188;51.188;16.374;2023-06-26T22:43:28;9.10;;;6.70;;
37303;SDS011;23188;51.188;16.374;2023-06-26T22:47:30;8.50;;;5.50;;
37303;SDS011;23188;51.188;16.374;2023-06-26T22:51:32;6.00;;;5.50;;
37303;SDS011;23188;51.188;16.374;2023-06-26T23:00:56;10.90;;;7.20;;
37303;SDS011;23188;51.188;16.374;2023-06-26T23:05:02;11.70;;;6.90;;
37303;SDS011;23188;51.188;16.374;2023-06-26T23:09:05;13.00;;;7.30;;
37303;SDS011;23188;51.188;16.374;2023-06-26T23:13:07;8.10;;;7.30;;
37303;SDS011;23188;51.188;16.374;2023-06-26T23:17:09;8.00;;;5.80;;
37303;SDS011;23188;51.188;16.374;2023-06-26T23:21:18;8.20;;;7.40;;
37303;SDS011;23188;51.188;16.374;2023-06-26T23:25:20;10.10;;;8.10;;
37303;SDS011;23188;51.188;16.374;2023-06-26T23:29:22;10.90;;;7.70;;
37303;SDS011;23188;51.188;16.374;2023-06-26T23:33:24;12.00;;;8.30;;
37303;SDS011;23188;51.188;16.374;2023-06-26T23:41:34;7.40;;;6.60;;
37303;SDS011;23188;51.188;16.374;2023-06-26T23:45:36;13.00;;;8.40;;
37303;SDS011;23188;51.188;16.374;2023-06-26T23:49:39;8.40;;;7.50;;
37303;SDS011;23188;51.188;16.374;2023-06-26T23:53:41;20.90;;;8.70;;
37303;SDS011;23188;51.188;16.374;2023-06-26T23:57:48;16.30;;;9.20;;
